createdAt,value
2019-03-27T00:02:18.614Z,95703.95
2019-03-27T00:04:48.566Z,95702.74
2019-03-27T00:07:18.532Z,95698.19
2019-03-27T00:09:48.457Z,95694.70
2019-03-27T00:12:20.441Z,95696.89
2019-03-27T00:14:50.448Z,95696.89
2019-03-27T00:17:20.380Z,95696.09
2019-03-27T00:19:50.874Z,95696.09
2019-03-27T00:22:20.811Z,95690.69
2019-03-27T00:24:50.757Z,95685.63
2019-03-27T00:27:20.688Z,95687.28
2019-03-27T00:29:50.622Z,95693.94
2019-03-27T00:32:20.544Z,95692.55
2019-03-27T00:34:50.782Z,95689.39
2019-03-27T00:37:20.825Z,95693.13
2019-03-27T00:39:50.781Z,95693.13
2019-03-27T00:42:20.748Z,95693.98
2019-03-27T00:44:50.706Z,95693.98
2019-03-27T00:47:20.685Z,95682.73
2019-03-27T00:49:50.825Z,95695.05
2019-03-27T00:52:20.976Z,95695.05
2019-03-27T00:54:50.916Z,95689.25
2019-03-27T00:57:21.141Z,95691.88
2019-03-27T00:59:51.062Z,95694.39
2019-03-27T01:02:21.569Z,95694.91
2019-03-27T01:04:51.549Z,95694.91
2019-03-27T01:07:21.545Z,95693.17
2019-03-27T01:09:51.483Z,95701.61
2019-03-27T01:12:22.360Z,95703.94
2019-03-27T01:14:53.505Z,95696.13
2019-03-27T01:17:23.530Z,95690.62
2019-03-27T01:19:53.437Z,95706.36
2019-03-27T01:22:23.333Z,95706.22
2019-03-27T01:24:53.878Z,95705.22
2019-03-27T01:27:23.760Z,95711.16
2019-03-27T01:29:54.509Z,95705.72
2019-03-27T01:32:24.434Z,95714.25
2019-03-27T01:34:54.787Z,95706.84
2019-03-27T01:37:24.711Z,95714.64
2019-03-27T01:39:54.617Z,95719.11
2019-03-27T01:42:24.554Z,95715.38
2019-03-27T01:44:54.489Z,95719.11
2019-03-27T01:47:24.431Z,95720.11
2019-03-27T01:49:54.343Z,95727.88
2019-03-27T01:52:24.278Z,95725.05
2019-03-27T01:54:54.609Z,95730.38
2019-03-27T01:57:24.511Z,95734.73
2019-03-27T01:59:54.411Z,95732.59
2019-03-27T02:02:24.324Z,95732.10
2019-03-27T02:04:54.756Z,95736.66
2019-03-27T02:07:24.665Z,95736.57
2019-03-27T02:09:54.574Z,95741.13
2019-03-27T02:12:24.496Z,95739.48
2019-03-27T02:14:54.598Z,95737.95
2019-03-27T02:17:24.765Z,95738.00
2019-03-27T02:19:54.982Z,95740.45
2019-03-27T02:22:25.047Z,95746.84
2019-03-27T02:24:54.953Z,95742.32
2019-03-27T02:27:24.884Z,95749.87
2019-03-27T02:29:54.797Z,95746.45
2019-03-27T02:32:24.716Z,95748.72
2019-03-27T02:34:55.073Z,95742.30
2019-03-27T02:37:25.426Z,95755.45
2019-03-27T02:39:55.870Z,95754.95
2019-03-27T02:42:27.590Z,95758.78
2019-03-27T02:44:57.960Z,95761.23
2019-03-27T02:47:27.879Z,95761.23
2019-03-27T02:49:57.807Z,95765.55
2019-03-27T02:52:27.715Z,95764.64
2019-03-27T02:54:58.149Z,95767.96
2019-03-27T02:57:28.046Z,95775.16
2019-03-27T02:59:58.007Z,95790.38
2019-03-27T03:02:28.114Z,95779.92
2019-03-27T03:04:58.547Z,95779.92
2019-03-27T03:07:28.481Z,95782.60
2019-03-27T03:09:58.393Z,95783.70
2019-03-27T03:12:28.324Z,95785.48
2019-03-27T03:14:58.224Z,95785.48
2019-03-27T03:17:28.155Z,95781.73
2019-03-27T03:19:58.082Z,95781.77
2019-03-27T03:22:28.035Z,95781.77
2019-03-27T03:24:57.963Z,95790.88
2019-03-27T03:27:28.038Z,95790.88
2019-03-27T03:29:57.967Z,95796.13
2019-03-27T03:32:27.873Z,95796.13
2019-03-27T03:34:57.923Z,95787.41
2019-03-27T03:37:28.216Z,95797.34
2019-03-27T03:39:58.492Z,95803.80
2019-03-27T03:42:28.396Z,95799.84
2019-03-27T03:44:58.325Z,95802.58
2019-03-27T03:47:28.238Z,95802.58
2019-03-27T03:49:58.741Z,95804.48
2019-03-27T03:52:30.450Z,95816.01
2019-03-27T03:55:00.495Z,95816.01
2019-03-27T03:57:31.187Z,95817.08
2019-03-27T04:00:03.490Z,95813.06
2019-03-27T04:02:35.061Z,95823.02
2019-03-27T04:05:06.181Z,95824.63
2019-03-27T04:07:36.099Z,95829.23
2019-03-27T04:10:08.599Z,95829.17
2019-03-27T04:12:38.880Z,95827.65
2019-03-27T04:15:09.028Z,95828.48
2019-03-27T04:17:38.981Z,95832.73
2019-03-27T04:20:09.765Z,95833.85
2019-03-27T04:22:39.719Z,95834.92
2019-03-27T04:25:09.755Z,95835.03
2019-03-27T04:27:39.686Z,95831.25
2019-03-27T04:30:10.084Z,95840.59
2019-03-27T04:32:41.477Z,95835.94
2019-03-27T04:35:11.524Z,95835.94
2019-03-27T04:37:41.875Z,95843.85
2019-03-27T04:40:11.881Z,95838.72
2019-03-27T04:42:41.775Z,95850.67
2019-03-27T04:45:12.343Z,95850.67
2019-03-27T04:47:42.285Z,95855.39
2019-03-27T04:50:12.319Z,95855.39
2019-03-27T04:52:42.238Z,95865.16
2019-03-27T04:55:12.265Z,95867.34
2019-03-27T04:57:42.454Z,95869.52
2019-03-27T05:00:12.608Z,95876.80
2019-03-27T05:02:42.510Z,95878.59
2019-03-27T05:05:12.627Z,95877.59
2019-03-27T05:07:42.811Z,95881.24
2019-03-27T05:10:12.981Z,95881.97
2019-03-27T05:12:42.913Z,95887.72
2019-03-27T05:15:12.934Z,95891.02
2019-03-27T05:17:46.137Z,95889.48
2019-03-27T05:20:14.915Z,95893.61
2019-03-27T05:22:45.015Z,95897.36
2019-03-27T05:25:15.118Z,95890.83
2019-03-27T05:27:45.051Z,95891.82
2019-03-27T05:30:17.934Z,95894.57
2019-03-27T05:32:47.890Z,95898.94
2019-03-27T05:35:17.822Z,95897.57
2019-03-27T05:37:47.702Z,95903.38
2019-03-27T05:40:17.692Z,95895.77
2019-03-27T05:42:59.992Z,95907.39
2019-03-27T05:45:19.282Z,95912.33
2019-03-27T05:47:59.351Z,95914.16
2019-03-27T05:50:21.194Z,95912.59
2019-03-27T05:52:51.640Z,95903.95
2019-03-27T05:55:21.547Z,95901.10
2019-03-27T05:57:51.547Z,95908.56
2019-03-27T06:00:21.591Z,95914.33
2019-03-27T06:02:51.991Z,95902.10
2019-03-27T06:05:21.915Z,95903.81
2019-03-27T06:07:51.938Z,95909.70
2019-03-27T06:10:22.022Z,95913.75
2019-03-27T06:12:51.955Z,95914.09
2019-03-27T06:15:22.017Z,95914.23
2019-03-27T06:17:52.008Z,95915.36
2019-03-27T06:20:21.961Z,95922.63
2019-03-27T06:22:52.007Z,95919.46
2019-03-27T06:25:21.968Z,95917.19
2019-03-27T06:27:51.978Z,95927.80
2019-03-27T06:30:22.035Z,95926.52
2019-03-27T06:32:52.121Z,95924.30
2019-03-27T06:35:22.206Z,95927.34
2019-03-27T06:37:52.627Z,95925.73
2019-03-27T06:40:22.613Z,95930.28
2019-03-27T06:42:52.585Z,95925.25
2019-03-27T06:45:22.675Z,95931.77
2019-03-27T06:47:52.882Z,95934.09
2019-03-27T06:50:22.911Z,95934.86
2019-03-27T06:52:52.971Z,95929.28
2019-03-27T06:55:23.061Z,95933.61
2019-03-27T06:57:53.127Z,95927.30
2019-03-27T07:00:35.635Z,95935.33
2019-03-27T07:03:06.249Z,95932.77
2019-03-27T07:05:37.782Z,95932.97
2019-03-27T07:08:07.823Z,95936.34
2019-03-27T07:10:37.963Z,95929.01
2019-03-27T07:13:10.093Z,95937.52
2019-03-27T07:15:40.153Z,95935.41
2019-03-27T07:18:10.186Z,95938.47
2019-03-27T07:20:41.329Z,95937.45
2019-03-27T07:23:11.297Z,95944.41
2019-03-27T07:25:41.510Z,95937.13
2019-03-27T07:28:12.432Z,95932.09
2019-03-27T07:30:42.369Z,95935.51
2019-03-27T07:33:13.182Z,95933.48
2019-03-27T07:35:44.457Z,95929.44
2019-03-27T07:38:14.438Z,95933.62
2019-03-27T07:40:44.433Z,95936.72
2019-03-27T07:43:14.817Z,95934.08
2019-03-27T07:45:44.891Z,95936.84
2019-03-27T07:48:15.732Z,95937.80
2019-03-27T07:50:45.667Z,95931.94
2019-03-27T07:53:15.759Z,95930.30
2019-03-27T07:55:45.716Z,95928.96
2019-03-27T07:58:16.533Z,95928.43
2019-03-27T08:00:46.471Z,95931.87
2019-03-27T08:03:16.456Z,95930.27
2019-03-27T08:05:46.882Z,95933.06
2019-03-27T08:08:16.890Z,95936.34
2019-03-27T08:10:46.920Z,95935.16
2019-03-27T08:13:17.795Z,95937.13
2019-03-27T08:15:48.001Z,95936.07
2019-03-27T08:18:17.962Z,95941.69
2019-03-27T08:20:48.132Z,95939.94
2019-03-27T08:23:18.229Z,95937.72
2019-03-27T08:25:48.227Z,95937.32
2019-03-27T08:28:18.243Z,95938.02
2019-03-27T08:30:48.860Z,95932.73
2019-03-27T08:33:18.902Z,95935.67
2019-03-27T08:35:48.961Z,95946.80
2019-03-27T08:38:19.148Z,95943.08
2019-03-27T08:40:49.049Z,95938.55
2019-03-27T08:43:21.534Z,95934.06
2019-03-27T08:45:50.749Z,95939.08
2019-03-27T08:48:21.091Z,95925.38
2019-03-27T08:50:51.042Z,95925.15
2019-03-27T08:53:21.275Z,95917.02
2019-03-27T08:55:51.280Z,95916.60
2019-03-27T08:58:21.278Z,95923.95
2019-03-27T09:00:52.990Z,95924.52
2019-03-27T09:03:23.342Z,95922.06
2019-03-27T09:05:53.531Z,95921.26
2019-03-27T09:08:23.440Z,95921.75
2019-03-27T09:10:53.944Z,95921.71
2019-03-27T09:13:24.803Z,95918.81
2019-03-27T09:15:54.819Z,95910.02
2019-03-27T09:18:24.830Z,95927.33
2019-03-27T09:20:54.815Z,95912.78
2019-03-27T09:23:24.919Z,95922.55
2019-03-27T09:25:54.869Z,95915.53
2019-03-27T09:28:24.914Z,95908.63
2019-03-27T09:30:55.134Z,95917.63
2019-03-27T09:33:25.153Z,95917.31
2019-03-27T09:35:55.792Z,95917.25
2019-03-27T09:38:25.867Z,95913.68
2019-03-27T09:40:56.403Z,95912.77
2019-03-27T09:43:27.457Z,95903.49
2019-03-27T09:45:57.572Z,95907.09
2019-03-27T09:48:28.935Z,95901.02
2019-03-27T09:50:59.803Z,95903.53
2019-03-27T09:53:30.130Z,95899.59
2019-03-27T09:56:00.203Z,95910.56
2019-03-27T09:58:30.507Z,95901.27
2019-03-27T10:01:05.727Z,95901.75
2019-03-27T10:03:35.807Z,95907.98
2019-03-27T10:06:05.874Z,95897.28
2019-03-27T10:08:35.977Z,95897.65
2019-03-27T10:11:06.084Z,95885.17
2019-03-27T10:13:36.079Z,95891.45
2019-03-27T10:16:06.322Z,95887.13
2019-03-27T10:18:36.268Z,95885.61
2019-03-27T10:21:06.784Z,95881.69
2019-03-27T10:23:36.850Z,95883.30
2019-03-27T10:26:07.450Z,95877.12
2019-03-27T10:28:37.457Z,95870.66
2019-03-27T10:31:07.376Z,95865.02
2019-03-27T10:33:37.329Z,95866.85
2019-03-27T10:36:07.313Z,95859.83
2019-03-27T10:38:37.235Z,95863.11
2019-03-27T10:41:07.623Z,95862.59
2019-03-27T10:43:37.626Z,95869.03
2019-03-27T10:46:08.476Z,95855.36
2019-03-27T10:48:51.454Z,95849.06
2019-03-27T10:51:10.333Z,95853.05
2019-03-27T10:53:40.282Z,95860.34
2019-03-27T10:56:10.220Z,95844.64
2019-03-27T10:58:40.965Z,95839.86
2019-03-27T11:01:11.344Z,95836.84
2019-03-27T11:03:41.322Z,95838.05
2019-03-27T11:06:12.977Z,95830.07
2019-03-27T11:08:43.780Z,95820.41
2019-03-27T11:11:14.158Z,95828.12
2019-03-27T11:13:44.236Z,95818.84
2019-03-27T11:16:14.185Z,95822.28
2019-03-27T11:18:44.170Z,95818.84
2019-03-27T11:21:14.153Z,95834.91
2019-03-27T11:23:44.216Z,95814.75
2019-03-27T11:26:14.232Z,95814.75
2019-03-27T11:28:44.696Z,95820.61
2019-03-27T11:31:16.444Z,95812.78
2019-03-27T11:33:46.431Z,95815.84
2019-03-27T11:36:16.394Z,95812.12
2019-03-27T11:38:47.221Z,95802.47
2019-03-27T11:41:17.131Z,95806.75
2019-03-27T11:43:54.786Z,95806.88
2019-03-27T11:46:18.821Z,95812.59
2019-03-27T11:48:48.749Z,95794.06
2019-03-27T11:51:18.739Z,95797.86
2019-03-27T11:53:48.649Z,95791.21
2019-03-27T11:56:19.508Z,95786.63
2019-03-27T11:58:50.308Z,95775.84
2019-03-27T12:01:20.316Z,95773.22
2019-03-27T12:03:50.287Z,95774.02
2019-03-27T12:06:20.349Z,95775.15
2019-03-27T12:08:50.978Z,95772.19
2019-03-27T12:11:21.157Z,95775.79
2019-03-27T12:13:51.102Z,95779.95
2019-03-27T12:16:21.055Z,95762.60
2019-03-27T12:18:50.992Z,95764.20
2019-03-27T12:21:21.377Z,95619.66
2019-03-27T12:23:51.358Z,95754.73
2019-03-27T12:26:21.296Z,95763.16
2019-03-27T12:28:51.250Z,95759.32
2019-03-27T12:31:21.176Z,95757.96
2019-03-27T12:33:51.657Z,95753.45
2019-03-27T12:36:22.088Z,95754.66
2019-03-27T12:38:52.157Z,95748.47
2019-03-27T12:41:22.170Z,95746.48
2019-03-27T12:43:52.093Z,95751.23
2019-03-27T12:46:22.014Z,95747.05
2019-03-27T12:48:52.808Z,95748.39
2019-03-27T12:51:22.838Z,95742.97
2019-03-27T12:53:52.800Z,95663.75
2019-03-27T12:56:23.255Z,95738.99
2019-03-27T12:58:53.676Z,95738.99
2019-03-27T13:01:24.026Z,95741.84
2019-03-27T13:03:53.969Z,95738.94
2019-03-27T13:06:23.925Z,95726.84
2019-03-27T13:08:53.942Z,95732.28
2019-03-27T13:11:23.909Z,95728.33
2019-03-27T13:13:53.873Z,95517.13
2019-03-27T13:16:23.833Z,95731.69
2019-03-27T13:18:53.784Z,95734.16
2019-03-27T13:21:26.633Z,95734.48
2019-03-27T13:23:55.738Z,95735.41
2019-03-27T13:26:26.050Z,95734.92
2019-03-27T13:28:56.490Z,95731.52
2019-03-27T13:31:26.438Z,95726.38
2019-03-27T13:33:56.397Z,95727.70
2019-03-27T13:36:26.394Z,95732.20
2019-03-27T13:38:56.386Z,95723.28
2019-03-27T13:41:26.375Z,95727.09
2019-03-27T13:43:56.389Z,95740.20
2019-03-27T13:46:26.341Z,95730.63
2019-03-27T13:48:56.629Z,95734.47
2019-03-27T13:51:39.989Z,95731.77
2019-03-27T13:53:58.532Z,95737.44
2019-03-27T13:56:28.526Z,95738.45
2019-03-27T13:58:58.514Z,95741.94
2019-03-27T14:01:28.622Z,95650.20
2019-03-27T14:03:58.634Z,95736.59
2019-03-27T14:06:28.634Z,95750.83
2019-03-27T14:08:58.821Z,95747.91
2019-03-27T14:11:28.948Z,95743.81
2019-03-27T14:14:10.727Z,95736.82
2019-03-27T14:16:31.262Z,95738.14
2019-03-27T14:19:01.234Z,95744.05
2019-03-27T14:21:32.121Z,95740.66
2019-03-27T14:24:02.100Z,95738.46
2019-03-27T14:26:44.385Z,95735.55
2019-03-27T14:29:03.976Z,95745.17
2019-03-27T14:31:34.879Z,95743.84
2019-03-27T14:34:05.088Z,95748.03
2019-03-27T14:36:35.112Z,95751.98
2019-03-27T14:39:07.072Z,95747.94
2019-03-27T14:41:37.363Z,95755.18
2019-03-27T14:44:07.287Z,95754.95
2019-03-27T14:46:37.289Z,95755.42
2019-03-27T14:49:07.353Z,95761.42
2019-03-27T14:51:37.389Z,95748.42
2019-03-27T14:54:07.373Z,95754.97
2019-03-27T14:56:37.358Z,95754.75
2019-03-27T14:59:07.653Z,95751.14
2019-03-27T15:01:37.802Z,95760.17
2019-03-27T15:04:07.799Z,95759.95
2019-03-27T15:06:37.774Z,95761.30
2019-03-27T15:09:09.010Z,95765.83
2019-03-27T15:11:39.052Z,95763.91
2019-03-27T15:14:09.032Z,95769.44
2019-03-27T15:16:39.001Z,95762.55
2019-03-27T15:19:09.065Z,95767.17
2019-03-27T15:21:39.312Z,95765.14
2019-03-27T15:24:09.448Z,95774.17
2019-03-27T15:26:39.606Z,95772.70
2019-03-27T15:29:09.837Z,95775.52
2019-03-27T15:31:39.791Z,95766.94
2019-03-27T15:34:09.757Z,95778.33
2019-03-27T15:36:40.604Z,95784.31
2019-03-27T15:39:11.483Z,95788.38
2019-03-27T15:41:41.623Z,95787.02
2019-03-27T15:44:11.657Z,95781.36
2019-03-27T15:46:42.005Z,95784.97
2019-03-27T15:49:12.020Z,95785.81
2019-03-27T15:51:42.057Z,95792.33
2019-03-27T15:54:12.067Z,95792.89
2019-03-27T15:56:42.214Z,95798.16
2019-03-27T15:59:12.707Z,95813.28
2019-03-27T16:01:42.712Z,95810.99
2019-03-27T16:04:13.139Z,95809.94
2019-03-27T16:06:43.180Z,95827.88
2019-03-27T16:09:17.012Z,95821.51
2019-03-27T16:11:47.074Z,95812.46
2019-03-27T16:14:17.224Z,95828.19
2019-03-27T16:17:06.831Z,95825.13
2019-03-27T16:19:18.921Z,95823.50
2019-03-27T16:21:48.950Z,95831.90
2019-03-27T16:24:19.401Z,95827.66
2019-03-27T16:27:03.507Z,95828.74
2019-03-27T16:29:21.365Z,95835.69
2019-03-27T16:31:51.614Z,95843.58
2019-03-27T16:34:25.125Z,95846.37
2019-03-27T16:36:54.310Z,95853.03
2019-03-27T16:39:24.407Z,95852.75
2019-03-27T16:41:54.453Z,95857.66
2019-03-27T16:44:24.527Z,95855.56
2019-03-27T16:46:54.782Z,95856.59
2019-03-27T16:49:25.286Z,95858.36
2019-03-27T16:51:56.598Z,95856.94
2019-03-27T16:54:26.733Z,95866.09
2019-03-27T16:56:56.755Z,95876.05
2019-03-27T16:59:26.995Z,95875.20
2019-03-27T17:01:57.037Z,95878.95
2019-03-27T17:04:27.050Z,95894.44
2019-03-27T17:06:57.056Z,95890.71
2019-03-27T17:09:27.068Z,95891.53
2019-03-27T17:11:57.106Z,95895.48
2019-03-27T17:14:27.132Z,95899.55
2019-03-27T17:16:57.130Z,95902.95
2019-03-27T17:19:27.580Z,95905.81
2019-03-27T17:21:57.633Z,95918.83
2019-03-27T17:24:27.689Z,95922.00
2019-03-27T17:26:57.847Z,95935.42
2019-03-27T17:29:30.050Z,95937.62
2019-03-27T17:32:00.100Z,95941.98
2019-03-27T17:34:44.292Z,95950.38
2019-03-27T17:37:14.388Z,95950.91
2019-03-27T17:39:44.420Z,95952.66
2019-03-27T17:42:14.412Z,95969.70
2019-03-27T17:44:44.647Z,95961.76
2019-03-27T17:47:16.117Z,95967.95
2019-03-27T17:49:46.215Z,95974.83
2019-03-27T17:52:17.082Z,95975.77
2019-03-27T17:54:47.010Z,95978.75
2019-03-27T17:57:17.461Z,95982.33
2019-03-27T17:59:47.789Z,95988.14
2019-03-27T18:02:17.946Z,96004.48
2019-03-27T18:04:47.901Z,95999.22
2019-03-27T18:07:18.122Z,95663.70
2019-03-27T18:09:50.314Z,96015.09
2019-03-27T18:12:20.356Z,96015.95
2019-03-27T18:14:50.379Z,96027.09
2019-03-27T18:17:21.116Z,96025.55
2019-03-27T18:19:52.400Z,96023.84
2019-03-27T18:22:22.669Z,96027.27
2019-03-27T18:24:54.479Z,96029.19
2019-03-27T18:27:25.737Z,96038.90
2019-03-27T18:29:59.056Z,96036.64
2019-03-27T18:32:30.985Z,96033.69
2019-03-27T18:35:02.602Z,96034.45
2019-03-27T18:37:33.302Z,96043.24
2019-03-27T18:40:04.136Z,95865.09
2019-03-27T18:42:34.500Z,96041.23
2019-03-27T18:45:04.845Z,96043.07
2019-03-27T18:47:34.965Z,96047.71
2019-03-27T18:50:05.776Z,96046.25
2019-03-27T18:52:35.850Z,96046.59
2019-03-27T18:55:07.235Z,96053.14
2019-03-27T18:57:37.659Z,96047.33
2019-03-27T19:00:08.104Z,96043.41
2019-03-27T19:02:38.109Z,96043.95
2019-03-27T19:05:08.444Z,96047.44
2019-03-27T19:07:38.434Z,96047.66
2019-03-27T19:10:09.325Z,96053.41
2019-03-27T19:12:39.340Z,96049.22
2019-03-27T19:15:09.630Z,96052.58
2019-03-27T19:17:39.822Z,96056.48
2019-03-27T19:20:10.070Z,96049.31
2019-03-27T19:22:41.036Z,96045.05
2019-03-27T19:25:11.003Z,96043.03
2019-03-27T19:27:40.985Z,96045.80
2019-03-27T19:30:11.707Z,96050.33
2019-03-27T19:32:41.781Z,96051.19
2019-03-27T19:35:11.751Z,96048.50
2019-03-27T19:37:42.549Z,95986.00
2019-03-27T19:40:15.258Z,96056.45
2019-03-27T19:42:45.283Z,96059.30
2019-03-27T19:45:15.569Z,96060.61
2019-03-27T19:47:47.121Z,96059.66
2019-03-27T19:50:17.329Z,96062.84
2019-03-27T19:52:47.813Z,96057.07
2019-03-27T19:55:18.902Z,96061.16
2019-03-27T19:57:48.927Z,96067.44
2019-03-27T20:00:20.495Z,96066.23
2019-03-27T20:02:50.711Z,96064.00
2019-03-27T20:05:20.632Z,96067.20
2019-03-27T20:07:50.565Z,96065.63
2019-03-27T20:10:20.503Z,96063.66
2019-03-27T20:12:50.511Z,96068.24
2019-03-27T20:15:20.439Z,96073.94
2019-03-27T20:17:50.351Z,96079.18
2019-03-27T20:20:20.415Z,96068.08
2019-03-27T20:22:50.324Z,96075.50
2019-03-27T20:25:20.290Z,96072.97
2019-03-27T20:27:51.284Z,96080.00
2019-03-27T20:30:22.737Z,96074.89
2019-03-27T20:32:53.220Z,96076.23
2019-03-27T20:35:23.228Z,96082.77
2019-03-27T20:37:53.206Z,96090.47
2019-03-27T20:40:23.146Z,96097.47
2019-03-27T20:42:53.089Z,96098.36
2019-03-27T20:45:23.008Z,96102.77
2019-03-27T20:47:52.907Z,96103.12
2019-03-27T20:50:22.811Z,96105.09
2019-03-27T20:52:52.722Z,96101.67
2019-03-27T20:55:30.193Z,96101.22
2019-03-27T20:57:54.296Z,96111.34
2019-03-27T21:00:24.404Z,96115.97
2019-03-27T21:02:54.563Z,96122.49
2019-03-27T21:05:24.803Z,96121.76
2019-03-27T21:07:54.985Z,96118.17
2019-03-27T21:10:24.873Z,96115.30
2019-03-27T21:12:54.746Z,96118.24
2019-03-27T21:15:24.694Z,96118.78
2019-03-27T21:17:54.665Z,96118.05
2019-03-27T21:20:24.835Z,96119.93
2019-03-27T21:22:54.816Z,96122.77
2019-03-27T21:25:24.833Z,96124.73
2019-03-27T21:27:54.806Z,96123.47
2019-03-27T21:30:24.801Z,96131.72
2019-03-27T21:32:54.809Z,96129.95
2019-03-27T21:35:24.716Z,96126.53
2019-03-27T21:37:55.146Z,96130.13
2019-03-27T21:40:25.161Z,96139.36
2019-03-27T21:42:55.296Z,96138.48
2019-03-27T21:45:25.224Z,96143.26
2019-03-27T21:47:55.214Z,96142.45
2019-03-27T21:50:25.130Z,96139.56
2019-03-27T21:53:00.750Z,96144.39
2019-03-27T21:55:26.971Z,96145.25
2019-03-27T21:57:57.256Z,96141.11
2019-03-27T22:00:45.073Z,96145.63
2019-03-27T22:03:15.209Z,96146.52
2019-03-27T22:05:45.358Z,96146.95
2019-03-27T22:08:15.308Z,96151.34
2019-03-27T22:10:45.417Z,96152.71
2019-03-27T22:13:15.305Z,96152.48
2019-03-27T22:15:45.317Z,96157.89
2019-03-27T22:18:15.299Z,96007.90
2019-03-27T22:20:45.482Z,96053.78
2019-03-27T22:23:15.443Z,96163.74
2019-03-27T22:25:45.390Z,96162.95
2019-03-27T22:28:15.359Z,96163.56
2019-03-27T22:30:45.365Z,96156.66
2019-03-27T22:33:15.336Z,96167.96
2019-03-27T22:35:45.261Z,96163.73
2019-03-27T22:38:15.222Z,96172.84
2019-03-27T22:40:45.205Z,96160.66
2019-03-27T22:43:15.401Z,96160.66
2019-03-27T22:45:45.423Z,96177.23
2019-03-27T22:48:15.292Z,96175.43
2019-03-27T22:50:45.223Z,96172.30
2019-03-27T22:53:15.231Z,96184.59
2019-03-27T22:55:50.181Z,96184.59
2019-03-27T22:58:17.904Z,96183.76
2019-03-27T23:00:50.958Z,96187.47
2019-03-27T23:03:21.163Z,96177.05
2019-03-27T23:05:52.908Z,96173.58
2019-03-27T23:08:23.221Z,96176.52
2019-03-27T23:10:53.250Z,96180.27
2019-03-27T23:13:23.287Z,96181.89
2019-03-27T23:15:53.564Z,96184.80
2019-03-27T23:18:23.502Z,96186.43
2019-03-27T23:20:53.404Z,96180.84
2019-03-27T23:23:23.323Z,96185.31
2019-03-27T23:26:02.921Z,96191.18
2019-03-27T23:28:24.934Z,96189.33
2019-03-27T23:30:54.906Z,96188.56
2019-03-27T23:33:24.922Z,96192.25
2019-03-27T23:35:54.840Z,96192.25
2019-03-27T23:38:24.774Z,96181.30
2019-03-27T23:40:54.936Z,96195.73
2019-03-27T23:43:24.881Z,96190.12
2019-03-27T23:45:54.783Z,96189.59
2019-03-27T23:48:24.803Z,96178.62
2019-03-27T23:50:54.806Z,96181.59
2019-03-27T23:53:24.677Z,96181.59
2019-03-27T23:55:54.617Z,96186.62
2019-03-27T23:58:24.621Z,96191.95
